Time;durP1;ratioP1;P1;durP2;ratioP2;P2;SDS_P1;SDS_P2;PMS_P1;PMS_P2;Temp;Humidity;BMP_temperature;BMP_pressure;BME280_temperature;BME280_humidity;BME280_pressure;Samples;Min_cycle;Max_cycle;Signal;HPM_P1;HPM_P2
2022/03/05 00:00:57;;;;;;;28.10;17.90;;;;;;;1.25;68.66;101142.73;111466;1245;23017;-80
2022/03/05 00:03:42;;;;;;;30.90;18.80;;;;;;;1.23;68.83;101142.69;111577;1245;22068;-82
2022/03/05 00:07:15;;;;;;;21.90;15.40;;;;;;;1.17;68.81;101140.05;111966;1239;21960;-81
2022/03/05 00:10:03;;;;;;;26.50;16.80;;;;;;;1.12;69.01;101135.83;111952;1235;22200;-80
2022/03/05 00:13:05;;;;;;;28.90;17.60;;;;;;;1.10;68.92;101139.27;112402;1235;21982;-81
2022/03/05 00:15:43;;;;;;;25.50;17.00;;;;;;;1.05;68.99;101139.34;112023;1238;22729;-80
2022/03/05 00:18:27;;;;;;;27.60;18.80;;;;;;;1.00;69.01;101142.77;111871;1239;24346;-81
2022/03/05 00:21:16;;;;;;;22.90;17.70;;;;;;;0.91;69.04;101142.59;111536;1244;23589;-80
2022/03/05 00:24:02;;;;;;;26.90;16.90;;;;;;;0.83;69.04;101144.60;111524;1242;23056;-81
2022/03/05 00:26:43;;;;;;;32.90;16.50;;;;;;;0.76;69.02;101143.77;111487;1242;23731;-81
2022/03/05 00:29:36;;;;;;;28.00;19.30;;;;;;;0.71;69.24;101141.80;112032;1238;21970;-80
2022/03/05 00:32:23;;;;;;;29.90;19.10;;;;;;;0.67;69.30;101141.67;111799;1239;22882;-80
2022/03/05 00:35:01;;;;;;;27.90;18.40;;;;;;;0.62;69.36;101144.36;111786;1238;23673;-81
2022/03/05 00:37:54;;;;;;;24.20;16.50;;;;;;;0.59;69.46;101143.14;112035;1239;22693;-79
2022/03/05 00:40:54;;;;;;;22.70;16.10;;;;;;;0.56;69.48;101143.65;112889;1232;24175;-79
2022/03/05 00:43:57;;;;;;;22.30;15.70;;;;;;;0.50;69.43;101149.02;112555;1236;21956;-79
2022/03/05 00:46:40;;;;;;;23.10;15.60;;;;;;;0.45;69.53;101145.84;112098;1235;21963;-79
2022/03/05 00:49:25;;;;;;;22.70;15.10;;;;;;;0.40;69.59;101142.25;112291;1235;22313;-78
2022/03/05 00:52:32;;;;;;;23.60;15.90;;;;;;;0.35;69.71;101143.94;112280;1235;23780;-78
2022/03/05 00:55:10;;;;;;;26.60;15.60;;;;;;;0.29;69.67;101149.30;112538;1235;22300;-79
2022/03/05 00:58:00;;;;;;;25.60;16.50;;;;;;;0.25;69.91;101148.44;112287;1235;23018;-80
2022/03/05 01:01:03;;;;;;;24.10;15.70;;;;;;;0.23;70.01;101151.54;112693;1232;21946;-79
2022/03/05 01:03:59;;;;;;;25.60;15.10;;;;;;;0.22;70.14;101146.02;113104;1233;22216;-79
2022/03/05 01:06:47;;;;;;;23.00;15.00;;;;;;;0.23;70.23;101145.08;112712;1235;21950;-81
2022/03/05 01:09:25;;;;;;;24.70;15.90;;;;;;;0.24;70.18;101153.02;112545;1235;24390;-81
2022/03/05 01:12:10;;;;;;;22.60;15.50;;;;;;;0.26;70.21;101148.41;112629;1235;21969;-81
2022/03/05 01:15:21;;;;;;;22.00;17.00;;;;;;;0.24;70.23;101148.00;112644;1235;22076;-81
2022/03/05 01:18:31;;;;;;;25.20;19.20;;;;;;;0.23;70.32;101150.62;111750;1241;21964;-79
2022/03/05 01:21:18;;;;;;;25.80;17.70;;;;;;;0.22;70.26;101152.43;111579;1241;22528;-80
2022/03/05 01:23:59;;;;;;;30.40;20.70;;;;;;;0.19;70.32;101151.34;111942;1238;22038;-79
2022/03/05 01:26:45;;;;;;;27.60;19.80;;;;;;;0.19;70.36;101146.71;111917;1241;23583;-80
2022/03/05 01:29:26;;;;;;;28.00;20.30;;;;;;;0.17;70.31;101145.23;111933;1242;21969;-80
2022/03/05 01:32:03;;;;;;;29.70;21.60;;;;;;;0.18;70.48;101147.11;111952;1242;23718;-80
2022/03/05 01:34:56;;;;;;;31.30;21.30;;;;;;;0.20;70.46;101151.48;111865;1242;21967;-81
2022/03/05 01:37:56;;;;;;;26.40;19.20;;;;;;;0.20;70.44;101151.48;112642;1235;23022;-81
2022/03/05 01:40:40;;;;;;;23.60;18.40;;;;;;;0.19;70.41;101152.55;112401;1236;22208;-81
2022/03/05 01:43:28;;;;;;;24.50;17.20;;;;;;;0.18;70.45;101146.56;112394;1236;21953;-80
2022/03/05 01:46:38;;;;;;;21.90;15.40;;;;;;;0.15;70.39;101146.05;113216;1230;24293;-80
2022/03/05 01:49:25;;;;;;;22.60;16.50;;;;;;;0.10;70.42;101145.60;113282;1230;22141;-80
2022/03/05 01:52:14;;;;;;;24.90;16.30;;;;;;;0.07;70.37;101143.70;113209;1233;22048;-79
2022/03/05 01:55:02;;;;;;;21.60;14.90;;;;;;;0.05;70.41;101139.14;113163;1230;22062;-79
2022/03/05 01:57:43;;;;;;;21.80;14.40;;;;;;;0.01;70.38;101141.95;113227;1230;22505;-79
2022/03/05 02:00:15;;;;;;;24.20;15.60;;;;;;;-0.03;70.42;101142.65;113128;1231;21936;-80
2022/03/05 02:02:52;;;;;;;22.60;15.50;;;;;;;-0.08;70.40;101139.11;113160;1232;22795;-81
2022/03/05 02:05:45;;;;;;;;;;;;;;;;;;;;;
2022/03/05 02:08:39;;;;;;;25.90;17.00;;;;;;;-0.13;70.66;101140.26;113275;1231;21974;-81
2022/03/05 02:11:40;;;;;;;25.30;18.10;;;;;;;-0.16;70.60;101137.48;113106;1230;23044;-81
2022/03/05 02:14:30;;;;;;;28.90;18.90;;;;;;;-0.19;70.68;101136.27;112539;1235;23667;-81
2022/03/05 02:17:04;;;;;;;27.00;17.70;;;;;;;-0.21;70.88;101137.02;112509;1235;21963;-82
2022/03/05 02:19:44;;;;;;;22.10;16.20;;;;;;;-0.20;70.98;101136.80;112466;1235;23757;-81
2022/03/05 02:22:35;;;;;;;22.30;15.70;;;;;;;-0.21;70.98;101136.30;112585;1235;21943;-80
2022/03/05 02:25:33;;;;;;;;;;;;;;;;;;;;;
2022/03/05 02:28:41;;;;;;;23.80;15.50;;;;;;;-0.20;71.15;101133.84;112624;1235;21958;-80
2022/03/05 02:31:40;;;;;;;23.70;16.80;;;;;;;-0.23;71.15;101136.23;112615;1235;23565;-79
2022/03/05 02:34:23;;;;;;;26.00;18.30;;;;;;;-0.23;71.27;101138.83;112219;1235;21968;-80
2022/03/05 02:37:07;;;;;;;23.50;16.20;;;;;;;-0.20;71.36;101138.87;112593;1235;21961;-81
2022/03/05 02:40:10;;;;;;;25.70;17.00;;;;;;;-0.16;71.54;101138.16;112541;1235;21968;-80
2022/03/05 02:43:01;;;;;;;24.60;17.70;;;;;;;-0.13;71.51;101142.14;112618;1235;21966;-80
2022/03/05 02:45:45;;;;;;;;;;;;;;;;;;;;;
2022/03/05 02:48:27;;;;;;;30.50;18.90;;;;;;;-0.10;71.60;101138.17;112092;1239;22157;-80
2022/03/05 02:51:05;;;;;;;26.30;18.10;;;;;;;-0.07;71.59;101141.31;112166;1236;22207;-80
2022/03/05 02:53:51;;;;;;;27.10;18.80;;;;;;;-0.03;71.68;101138.48;112063;1238;23731;-80
2022/03/05 02:56:44;;;;;;;27.70;18.40;;;;;;;0.01;71.76;101136.91;112036;1239;21998;-80
2022/03/05 02:59:28;;;;;;;23.70;17.10;;;;;;;0.02;71.62;101136.02;111803;1239;21987;-80
2022/03/05 03:02:03;;;;;;;23.80;18.40;;;;;;;0.00;71.50;101134.70;112077;1238;23648;-80
2022/03/05 03:04:44;;;;;;;24.50;17.10;;;;;;;-0.00;71.46;101130.93;111776;1241;21951;-81
2022/03/05 03:07:21;;;;;;;26.80;19.00;;;;;;;-0.03;71.34;101134.31;111840;1241;21969;-81
2022/03/05 03:09:58;;;;;;;26.20;19.70;;;;;;;-0.01;71.58;101131.81;111413;1248;23689;-80
2022/03/05 03:12:59;;;;;;;26.70;20.00;;;;;;;-0.00;71.62;101130.90;111745;1241;22399;-80
2022/03/05 03:15:37;;;;;;;25.20;18.70;;;;;;;0.01;71.66;101131.73;111975;1241;23573;-81
2022/03/05 03:18:35;;;;;;;28.40;19.40;;;;;;;0.01;71.70;101130.68;112045;1241;23681;-80
2022/03/05 03:21:18;;;;;;;25.80;20.80;;;;;;;0.03;71.70;101126.78;112077;1241;23667;-80
2022/03/05 03:24:01;;;;;;;24.90;20.10;;;;;;;0.03;71.67;101127.48;111905;1242;21970;-80
2022/03/05 03:26:41;;;;;;;25.30;18.70;;;;;;;0.02;71.63;101127.66;112104;1239;21966;-81
2022/03/05 03:29:22;;;;;;;27.70;21.30;;;;;;;0.00;71.55;101130.36;111458;1245;21986;-80
2022/03/05 03:32:04;;;;;;;25.70;20.60;;;;;;;-0.01;71.57;101131.45;111445;1245;23757;-79
2022/03/05 03:34:59;;;;;;;28.70;22.10;;;;;;;-0.02;71.59;101130.48;111675;1242;21962;-80
2022/03/05 03:37:54;;;;;;;35.20;23.60;;;;;;;-0.04;71.61;101130.42;111985;1242;21941;-81
2022/03/05 03:40:34;;;;;;;34.00;23.50;;;;;;;-0.07;71.64;101132.33;112225;1239;21976;-80
2022/03/05 03:43:09;;;;;;;27.20;23.10;;;;;;;-0.07;71.66;101133.19;111572;1245;23210;-81
2022/03/05 03:45:54;;;;;;;33.50;22.50;;;;;;;-0.06;71.77;101134.87;111945;1242;21986;-80
2022/03/05 03:48:48;;;;;;;31.50;21.90;;;;;;;-0.08;71.71;101134.41;112276;1238;22055;-81
2022/03/05 03:51:31;;;;;;;27.10;21.80;;;;;;;-0.10;71.75;101131.58;112431;1235;23683;-80
2022/03/05 03:54:18;;;;;;;27.20;20.30;;;;;;;-0.08;71.88;101133.58;112369;1235;21998;-80
2022/03/05 03:56:59;;;;;;;25.80;20.00;;;;;;;-0.04;71.99;101131.46;112326;1238;21985;-81
2022/03/05 03:59:51;;;;;;;26.90;20.20;;;;;;;-0.02;71.96;101129.77;112346;1235;23054;-81
2022/03/05 04:03:08;;;;;;;27.30;19.20;;;;;;;-0.00;71.89;101133.52;112865;1231;22074;-81
2022/03/05 04:06:08;;;;;;;30.10;21.70;;;;;;;-0.03;71.89;101136.75;113487;1229;22978;-82
2022/03/05 04:09:25;;;;;;;27.90;19.70;;;;;;;-0.04;71.88;101137.84;113250;1231;21971;-81
2022/03/05 04:12:07;;;;;;;28.50;20.80;;;;;;;-0.04;71.91;101138.56;112258;1238;23587;-79
2022/03/05 04:14:54;;;;;;;;;;;;;;;;;;;;;
2022/03/05 04:17:38;;;;;;;26.00;17.10;;;;;;;-0.00;72.01;101142.34;111527;1245;24328;-80
2022/03/05 04:20:29;;;;;;;26.00;17.30;;;;;;;-0.01;71.92;101141.52;111515;1247;21957;-80
2022/03/05 04:23:20;;;;;;;27.00;18.40;;;;;;;-0.02;71.93;101142.95;111642;1244;21985;-81
2022/03/05 04:26:30;;;;;;;24.60;17.60;;;;;;;-0.03;71.96;101144.56;111109;1251;21985;-81
2022/03/05 04:29:04;;;;;;;;;;;;;;;-0.03;72.06;101141.80;110981;1251;23070;-79
2022/03/05 04:32:04;;;;;;;23.40;17.40;;;;;;;-0.09;72.18;101140.21;111059;1247;21974;-80
2022/03/05 04:34:48;;;;;;;23.30;16.50;;;;;;;-0.10;72.15;101144.23;110890;1250;23072;-80
2022/03/05 04:37:37;;;;;;;27.60;17.80;;;;;;;-0.11;72.02;101146.88;111141;1250;22153;-80
2022/03/05 04:40:43;;;;;;;26.20;17.00;;;;;;;-0.11;72.10;101148.25;111137;1250;21994;-80
2022/03/05 04:43:27;;;;;;;22.50;15.30;;;;;;;-0.11;72.11;101149.48;111182;1250;22018;-80
2022/03/05 04:46:27;;;;;;;21.50;15.10;;;;;;;-0.10;72.26;101147.88;111167;1249;23180;-81
2022/03/05 04:49:34;;;;;;;20.80;14.30;;;;;;;-0.11;72.26;101150.53;111660;1242;21948;-82
2022/03/05 04:52:12;;;;;;;25.00;15.50;;;;;;;-0.10;72.43;101149.77;111780;1238;21969;-80
2022/03/05 04:54:59;;;;;;;20.60;14.10;;;;;;;-0.07;72.35;101151.04;111912;1238;21927;-80
2022/03/05 04:57:45;;;;;;;23.20;15.30;;;;;;;-0.04;72.37;101151.05;112758;1231;21957;-80
2022/03/05 05:00:37;;;;;;;21.00;15.30;;;;;;;-0.02;72.45;101151.44;112693;1235;21962;-80
2022/03/05 05:03:58;;;;;;;21.40;16.70;;;;;;;0.01;72.49;101151.13;112166;1238;23670;-81
2022/03/05 05:06:57;;;;;;;21.20;15.60;;;;;;;0.03;72.42;101146.70;111372;1247;22496;-81
2022/03/05 05:09:33;;;;;;;22.40;16.50;;;;;;;0.06;72.37;101150.01;111792;1245;22008;-82
2022/03/05 05:12:23;;;;;;;22.70;16.10;;;;;;;0.08;72.36;101151.96;111722;1244;23681;-80
2022/03/05 05:15:05;;;;;;;27.80;15.70;;;;;;;0.08;72.25;101152.63;111543;1245;22611;-80
2022/03/05 05:17:44;;;;;;;24.70;17.00;;;;;;;0.09;72.24;101155.02;111739;1242;21983;-81
2022/03/05 05:20:16;;;;;;;18.70;15.30;;;;;;;0.09;72.18;101155.20;112131;1242;22324;-78
2022/03/05 05:23:02;;;;;;;20.10;15.60;;;;;;;0.08;72.13;101155.05;112289;1237;23093;-80
2022/03/05 05:25:46;;;;;;;;;;;;;;;0.09;72.23;101159.15;113203;1229;23012;-80
2022/03/05 05:28:47;;;;;;;21.70;15.20;;;;;;;0.05;72.42;101158.73;113148;1231;24487;-85
2022/03/05 05:31:45;;;;;;;20.80;15.80;;;;;;;0.01;72.27;101157.51;112951;1235;24512;-83
2022/03/05 05:34:18;;;;;;;31.20;20.10;;;;;;;0.02;72.34;101160.56;112379;1238;23661;-83
2022/03/05 05:36:59;;;;;;;24.80;16.60;;;;;;;0.05;72.31;101160.42;111857;1241;21959;-81
2022/03/05 05:39:47;;;;;;;27.50;18.40;;;;;;;0.04;72.14;101167.21;112187;1241;22660;-80
2022/03/05 05:42:31;;;;;;;31.80;17.40;;;;;;;0.05;72.31;101167.35;111475;1245;21989;-81
2022/03/05 05:45:24;;;;;;;20.90;15.60;;;;;;;0.05;72.28;101170.33;111227;1251;23076;-80
2022/03/05 05:48:01;;;;;;;;;;;;;;;0.05;72.20;101172.06;111181;1251;22005;-79
2022/03/05 05:50:42;;;;;;;27.90;17.80;;;;;;;-0.04;72.12;101173.19;111201;1251;22393;-81
2022/03/05 05:53:31;;;;;;;41.00;19.10;;;;;;;-0.06;72.32;101174.14;111115;1247;23759;-80
2022/03/05 05:56:11;;;;;;;29.90;22.70;;;;;;;-0.01;72.42;101175.66;111222;1248;21984;-79
2022/03/05 05:58:42;;;;;;;37.10;26.50;;;;;;;0.03;72.55;101175.60;111371;1244;21978;-82
2022/03/05 06:01:14;;;;;;;46.00;33.50;;;;;;;0.07;72.56;101177.98;111711;1238;22060;-82
2022/03/05 06:04:14;;;;;;;43.10;32.60;;;;;;;0.10;72.45;101176.96;112564;1232;23766;-83
2022/03/05 06:06:58;;;;;;;39.30;27.50;;;;;;;0.13;72.45;101181.14;113419;1231;22006;-80
2022/03/05 06:10:59;;;;;;;36.70;27.00;;;;;;;0.15;72.56;101182.39;113214;1232;22068;-81
2022/03/05 06:15:11;;;;;;;;;;;;;;;;;;;;;
2022/03/05 06:17:54;;;;;;;30.50;21.60;;;;;;;0.16;72.53;101187.73;111744;1244;22024;-82
2022/03/05 06:20:44;;;;;;;31.80;20.80;;;;;;;0.19;72.50;101190.34;111674;1245;22115;-82
2022/03/05 06:23:30;;;;;;;28.20;19.60;;;;;;;0.24;72.49;101187.86;111269;1247;22781;-82
2022/03/05 06:26:31;;;;;;;30.90;21.90;;;;;;;0.29;72.54;101189.98;110822;1254;22429;-82
2022/03/05 06:29:27;;;;;;;42.80;29.80;;;;;;;0.36;72.55;101196.70;110311;1257;22003;-82
2022/03/05 06:32:10;;;;;;;;;;;;;;;;;;;;;
2022/03/05 06:35:06;;;;;;;34.40;28.60;;;;;;;0.48;72.46;101196.80;110067;1260;23826;-81
2022/03/05 06:37:48;;;;;;;28.90;21.50;;;;;;;0.55;72.48;101202.16;110321;1260;23672;-82
2022/03/05 06:40:32;;;;;;;26.00;20.90;;;;;;;0.58;72.30;101204.60;110145;1260;21975;-81
2022/03/05 06:43:22;;;;;;;33.30;22.50;;;;;;;0.57;72.21;101211.55;110635;1255;21988;-81
2022/03/05 06:49:35;;;;;;;24.60;17.40;;;;;;;0.52;71.94;101212.67;112343;1235;21958;-82
2022/03/05 06:52:20;;;;;;;28.70;17.60;;;;;;;0.50;71.92;101215.25;111925;1243;22197;-83
2022/03/05 06:54:58;;;;;;;28.60;16.00;;;;;;;0.55;72.06;101218.98;111793;1241;22121;-81
2022/03/05 06:57:44;;;;;;;19.50;14.20;;;;;;;0.61;72.04;101218.29;111558;1245;21970;-82
2022/03/05 07:00:39;;;;;;;21.90;15.30;;;;;;;0.65;71.86;101220.64;111694;1243;21979;-82
2022/03/05 07:03:16;;;;;;;22.70;15.30;;;;;;;0.69;71.69;101221.11;111605;1245;23037;-82
2022/03/05 07:06:05;;;;;;;21.50;15.50;;;;;;;0.71;71.60;101219.60;111208;1251;21970;-82
2022/03/05 07:09:03;;;;;;;22.90;15.70;;;;;;;0.73;71.50;101219.70;111170;1248;22982;-81
2022/03/05 07:11:58;;;;;;;24.00;16.60;;;;;;;0.76;71.42;101217.98;111557;1238;23665;-82
2022/03/05 07:14:52;;;;;;;24.00;16.70;;;;;;;0.77;71.12;101221.23;112074;1239;22776;-81
2022/03/05 07:17:55;;;;;;;28.10;19.50;;;;;;;0.69;70.94;101226.52;112098;1241;21987;-83
2022/03/05 07:21:05;;;;;;;27.20;17.50;;;;;;;0.68;71.18;101224.64;111766;1244;21972;-84
2022/03/05 07:23:58;;;;;;;34.30;19.80;;;;;;;0.74;71.32;101226.44;111900;1241;22002;-83
2022/03/05 07:26:45;;;;;;;34.00;19.70;;;;;;;0.76;71.25;101227.00;112136;1239;22048;-83
2022/03/05 07:29:43;;;;;;;41.00;25.80;;;;;;;0.79;71.23;101231.34;112114;1241;22469;-80
2022/03/05 07:32:25;;;;;;;32.00;20.60;;;;;;;0.83;71.13;101233.68;112259;1241;21968;-82
2022/03/05 07:35:03;;;;;;;23.40;16.80;;;;;;;0.90;71.16;101237.16;112289;1235;21952;-81
2022/03/05 07:38:06;;;;;;;;;;;;;;;0.96;71.08;101238.90;111820;1238;23028;-81
2022/03/05 07:41:12;;;;;;;28.40;18.00;;;;;;;0.97;71.23;101239.73;112375;1238;21979;-81
2022/03/05 07:44:00;;;;;;;23.10;18.10;;;;;;;1.05;71.35;101242.92;112110;1238;23824;-81
2022/03/05 07:47:06;;;;;;;;;;;;;;;;;;;;;
2022/03/05 07:49:40;;;;;;;27.40;16.40;;;;;;;1.22;70.87;101247.86;111679;1244;23699;-81
2022/03/05 07:52:30;;;;;;;;;;;;;;;;;;;;;
2022/03/05 07:55:17;;;;;;;24.20;17.30;;;;;;;1.23;70.44;101251.83;111688;1238;23566;-83
2022/03/05 07:58:19;;;;;;;25.60;18.30;;;;;;;1.25;70.35;101248.92;111493;1244;22013;-83
2022/03/05 08:01:03;;;;;;;27.10;19.30;;;;;;;1.30;70.41;101250.04;111277;1247;22398;-83
2022/03/05 08:03:46;;;;;;;22.90;16.00;;;;;;;1.34;70.25;101252.75;110817;1251;22017;-81
2022/03/05 08:06:29;;;;;;;28.40;19.40;;;;;;;1.43;70.37;101253.28;110789;1256;22014;-81
2022/03/05 08:09:10;;;;;;;24.70;19.00;;;;;;;1.56;70.36;101255.86;110681;1254;22018;-81
2022/03/05 08:12:05;;;;;;;23.00;18.40;;;;;;;1.67;70.15;101255.02;110911;1251;21972;-81
2022/03/05 08:14:50;;;;;;;27.70;17.90;;;;;;;1.77;69.87;101260.39;110880;1253;21970;-79
2022/03/05 08:17:24;;;;;;;25.30;17.70;;;;;;;1.83;69.47;101262.07;110894;1250;22523;-80
2022/03/05 08:20:09;;;;;;;26.70;17.80;;;;;;;1.90;69.21;101267.92;110978;1251;21981;-81
2022/03/05 08:22:43;;;;;;;23.00;16.80;;;;;;;1.93;68.95;101269.50;110904;1250;23059;-80
2022/03/05 08:25:26;;;;;;;32.80;21.10;;;;;;;1.98;68.79;101272.70;111137;1247;23577;-80
2022/03/05 08:28:01;;;;;;;28.00;17.40;;;;;;;1.99;68.39;101278.17;111312;1240;243614;-80
2022/03/05 08:30:50;;;;;;;24.10;18.00;;;;;;;1.98;68.08;101280.14;111751;1241;21956;-81
2022/03/05 08:33:38;;;;;;;;;;;;;;;;;;;;;
2022/03/05 08:36:33;;;;;;;25.50;17.90;;;;;;;1.93;67.46;101281.86;112324;1235;23657;-80
2022/03/05 08:39:08;;;;;;;23.80;19.40;;;;;;;1.93;67.25;101284.30;112528;1231;21916;-80
2022/03/05 08:41:46;;;;;;;26.90;21.50;;;;;;;1.99;67.47;101283.07;113242;1231;21956;-79
2022/03/05 08:44:21;;;;;;;29.40;21.00;;;;;;;2.08;67.50;101283.39;113291;1228;23560;-81
2022/03/05 08:47:06;;;;;;;26.20;19.60;;;;;;;2.18;67.54;101284.06;113091;1231;22143;-80
2022/03/05 08:49:40;;;;;;;32.80;18.80;;;;;;;2.28;67.34;101285.15;113015;1231;21944;-81
2022/03/05 08:52:35;;;;;;;;;;;;;;;;;;;;;
2022/03/05 08:55:19;;;;;;;31.30;20.50;;;;;;;2.43;66.74;101289.67;112428;1235;22717;-80
2022/03/05 08:57:54;;;;;;;25.20;17.00;;;;;;;2.52;66.84;101286.70;111645;1241;24024;-80
2022/03/05 09:00:29;;;;;;;;;;;;;;;2.63;66.64;101287.23;111246;1247;23577;-79
2022/03/05 09:03:19;;;;;;;29.30;17.80;;;;;;;2.64;66.30;101286.85;111343;1247;22504;-81
2022/03/05 09:05:54;;;;;;;29.00;18.30;;;;;;;2.68;66.15;101284.50;111008;1251;22049;-83
2022/03/05 09:08:38;;;;;;;26.90;17.60;;;;;;;2.78;65.98;101286.85;110282;1257;23606;-81
2022/03/05 09:11:26;;;;;;;24.70;16.70;;;;;;;2.89;65.70;101292.58;110411;1257;23098;-82
2022/03/05 09:13:58;;;;;;;21.10;14.50;;;;;;;2.98;65.47;101289.05;110652;1251;22732;-82
2022/03/05 09:16:44;;;;;;;24.20;18.70;;;;;;;3.05;65.02;101287.91;110475;1257;22115;-82
2022/03/05 09:19:27;;;;;;;23.10;17.10;;;;;;;3.15;64.77;101286.64;110692;1251;22425;-82
2022/03/05 09:22:26;;;;;;;26.40;17.00;;;;;;;3.28;64.35;101285.78;111266;1244;21969;-81
2022/03/05 09:25:11;;;;;;;;;;;;;;;;;;;;;
2022/03/05 09:27:45;;;;;;;28.50;17.30;;;;;;;3.45;63.59;101286.95;112031;1238;21967;-82
2022/03/05 09:30:36;;;;;;;20.30;15.90;;;;;;;3.59;63.50;101291.77;112138;1238;21960;-81
2022/03/05 09:33:22;;;;;;;;;;;;;;;;;;;;;
2022/03/05 09:35:58;;;;;;;20.20;13.50;;;;;;;3.88;62.87;101294.96;112568;1235;23017;-82
2022/03/05 09:38:39;;;;;;;23.10;15.60;;;;;;;3.97;62.39;101296.45;112664;1235;21952;-81
2022/03/05 09:41:19;;;;;;;20.40;14.60;;;;;;;4.09;62.08;101297.94;112466;1235;23772;-81
2022/03/05 09:43:59;;;;;;;21.40;14.00;;;;;;;4.17;61.48;101295.97;111910;1241;21963;-80
2022/03/05 09:46:41;;;;;;;18.50;12.00;;;;;;;4.25;60.89;101296.48;111640;1244;22725;-81
2022/03/05 09:49:17;;;;;;;18.30;12.60;;;;;;;4.35;60.79;101299.46;111374;1247;23640;-81
2022/03/05 09:51:46;;;;;;;15.80;10.10;;;;;;;4.43;60.15;101298.21;111417;1247;23651;-81
2022/03/05 09:54:16;;;;;;;15.30;10.90;;;;;;;4.47;59.34;101295.00;111423;1247;23729;-81
2022/03/05 09:56:55;;;;;;;14.20;11.30;;;;;;;4.42;58.37;101294.24;111275;1247;23062;-79
2022/03/05 09:59:32;;;;;;;16.40;10.70;;;;;;;4.40;57.92;101297.04;111348;1247;22851;-83
2022/03/05 10:02:03;;;;;;;15.10;9.50;;;;;;;4.38;57.53;101294.55;111362;1247;23138;-81
2022/03/05 10:04:41;;;;;;;16.60;11.00;;;;;;;4.41;57.10;101297.34;111474;1244;23049;-81
2022/03/05 10:07:22;;;;;;;14.10;9.80;;;;;;;4.40;56.31;101300.88;111937;1238;22190;-82
2022/03/05 10:10:11;;;;;;;23.80;11.60;;;;;;;4.37;56.23;101296.86;113112;1230;22824;-82
2022/03/05 10:13:11;;;;;;;14.30;9.10;;;;;;;4.42;55.85;101296.89;113379;1229;23028;-82
2022/03/05 10:15:45;;;;;;;19.00;13.00;;;;;;;4.49;55.42;101293.83;113285;1230;21950;-83
2022/03/05 10:18:14;;;;;;;17.40;12.30;;;;;;;4.54;54.68;101296.27;113194;1231;23635;-82
2022/03/05 10:21:09;;;;;;;19.80;13.70;;;;;;;4.53;54.13;101294.55;113077;1230;23175;-81
2022/03/05 10:24:08;;;;;;;20.80;13.80;;;;;;;4.56;53.91;101297.35;112725;1235;22453;-81
2022/03/05 10:27:03;;;;;;;20.20;12.90;;;;;;;4.64;53.90;101289.94;112399;1234;21954;-82
2022/03/05 10:29:47;;;;;;;20.70;13.30;;;;;;;4.86;54.15;101289.84;111882;1241;22841;-81
2022/03/05 10:32:25;;;;;;;12.60;8.50;;;;;;;5.16;53.72;101293.29;111602;1245;22107;-81
2022/03/05 10:35:00;;;;;;;13.80;10.80;;;;;;;5.41;52.84;101291.17;111496;1247;23065;-82
2022/03/05 10:37:51;;;;;;;17.50;11.80;;;;;;;5.82;53.02;101288.33;111398;1247;22011;-82
2022/03/05 10:40:34;;;;;;;15.60;10.90;;;;;;;6.49;52.20;101290.45;111399;1245;22000;-82
2022/03/05 10:43:19;;;;;;;11.00;9.20;;;;;;;6.92;51.47;101289.20;111500;1244;22399;-82
2022/03/05 10:45:58;;;;;;;17.50;12.10;;;;;;;7.74;51.73;101284.52;111242;1247;24318;-80
2022/03/05 10:48:40;;;;;;;10.50;7.70;;;;;;;8.29;48.96;101286.58;111303;1244;22024;-82
2022/03/05 10:51:18;;;;;;;10.10;7.50;;;;;;;8.17;46.27;101290.39;111484;1241;21969;-81
2022/03/05 10:53:55;;;;;;;8.10;5.90;;;;;;;7.76;45.36;101290.07;111837;1241;22006;-83
2022/03/05 10:56:34;;;;;;;12.00;7.10;;;;;;;7.33;45.08;101283.58;111748;1244;23020;-84
2022/03/05 10:59:16;;;;;;;8.30;6.00;;;;;;;6.91;44.68;101286.14;110909;1254;21970;-83
2022/03/05 11:01:53;;;;;;;8.20;5.80;;;;;;;6.44;44.46;101284.89;110337;1257;22033;-80
2022/03/05 11:04:35;;;;;;;6.70;5.00;;;;;;;6.08;44.74;101283.59;110359;1256;23689;-81
2022/03/05 11:07:25;;;;;;;9.60;6.00;;;;;;;5.71;44.59;101286.15;110223;1257;21995;-80
2022/03/05 11:10:03;;;;;;;6.10;4.70;;;;;;;5.30;44.34;101287.04;110395;1253;21968;-80
2022/03/05 11:12:56;;;;;;;6.00;4.40;;;;;;;4.95;44.55;101290.09;110851;1251;22033;-81
2022/03/05 11:15:27;;;;;;;10.20;5.90;;;;;;;4.72;44.71;101289.97;111142;1244;22160;-82
2022/03/05 11:18:05;;;;;;;8.10;5.90;;;;;;;4.53;44.82;101289.15;111666;1238;21957;-81
2022/03/05 11:20:42;;;;;;;13.30;4.30;;;;;;;4.42;44.94;101291.80;111618;1241;21972;-81
2022/03/05 11:23:17;;;;;;;6.00;4.80;;;;;;;4.33;44.64;101286.88;111422;1245;23558;-82
2022/03/05 11:25:54;;;;;;;4.70;4.00;;;;;;;4.22;44.43;101287.42;111422;1244;21982;-81
2022/03/05 11:28:47;;;;;;;;;;;;;;;;;;;;;
2022/03/05 11:31:34;;;;;;;8.90;5.70;;;;;;;4.11;44.06;101290.25;111404;1247;22420;-81
2022/03/05 11:34:29;;;;;;;6.90;4.90;;;;;;;4.02;43.70;101289.15;111256;1247;23781;-80
2022/03/05 11:37:36;;;;;;;3.70;2.80;;;;;;;3.92;43.55;101289.61;111509;1244;22059;-81
2022/03/05 11:40:27;;;;;;;6.70;4.00;;;;;;;3.85;43.54;101286.45;111431;1244;22158;-81
2022/03/05 11:43:23;;;;;;;7.70;3.80;;;;;;;3.80;43.16;101285.02;111844;1241;23725;-82
2022/03/05 11:46:03;;;;;;;5.50;4.20;;;;;;;3.75;43.12;101284.27;111437;1244;21972;-82
2022/03/05 11:48:44;;;;;;;5.30;3.70;;;;;;;3.69;42.85;101281.03;111459;1242;21956;-81
2022/03/05 11:51:23;;;;;;;8.90;5.10;;;;;;;3.62;42.79;101278.40;111960;1241;23580;-81
2022/03/05 11:54:13;;;;;;;7.60;4.30;;;;;;;3.60;42.99;101279.92;111796;1241;23143;-82
2022/03/05 11:57:11;;;;;;;6.30;4.50;;;;;;;3.59;42.93;101276.80;111840;1241;22290;-81
2022/03/05 11:59:54;;;;;;;7.40;5.80;;;;;;;3.62;42.96;101274.38;111913;1241;22024;-80
2022/03/05 12:02:50;;;;;;;9.70;6.50;;;;;;;3.68;43.02;101272.91;111513;1244;23761;-80
2022/03/05 12:05:52;;;;;;;10.20;6.40;;;;;;;3.68;42.70;101274.98;111898;1241;22141;-81
2022/03/05 12:08:26;;;;;;;8.00;6.10;;;;;;;3.67;42.67;101275.41;112039;1240;22030;-80
2022/03/05 12:11:15;;;;;;;8.50;6.10;;;;;;;3.68;42.43;101275.20;111931;1241;21951;-80
2022/03/05 12:14:00;;;;;;;7.60;4.60;;;;;;;3.66;42.26;101271.81;111973;1239;21961;-80
2022/03/05 12:16:47;;;;;;;8.00;4.40;;;;;;;3.61;42.04;101270.98;111524;1244;22084;-81
2022/03/05 12:19:54;;;;;;;10.70;4.90;;;;;;;3.49;41.85;101263.88;111502;1241;23041;-80
2022/03/05 12:22:53;;;;;;;7.10;4.90;;;;;;;3.45;41.98;101256.80;111763;1241;21969;-81
2022/03/05 12:25:42;;;;;;;8.40;4.40;;;;;;;3.50;42.17;101253.34;111429;1247;21978;-81
2022/03/05 12:28:24;;;;;;;4.60;3.60;;;;;;;3.54;42.04;101253.25;111357;1247;23681;-80
2022/03/05 12:30:59;;;;;;;8.30;4.70;;;;;;;3.55;41.89;101255.85;111267;1247;22976;-82
2022/03/05 12:33:33;;;;;;;10.60;7.20;;;;;;;3.54;41.77;101254.64;111165;1250;22158;-81
2022/03/05 12:36:08;;;;;;;10.60;7.20;;;;;;;3.56;41.83;101248.66;111473;1247;22904;-82
2022/03/05 12:38:58;;;;;;;7.40;4.90;;;;;;;3.59;41.99;101251.89;112042;1241;21987;-80
2022/03/05 12:41:28;;;;;;;5.30;4.50;;;;;;;3.59;41.72;101254.34;112234;1239;23316;-80
2022/03/05 12:44:00;;;;;;;5.60;4.90;;;;;;;3.54;41.51;101252.93;111774;1243;21965;-80
2022/03/05 12:46:31;;;;;;;8.30;4.60;;;;;;;3.49;41.40;101248.55;111735;1244;23676;-80
2022/03/05 12:49:07;;;;;;;7.70;5.90;;;;;;;3.47;41.48;101249.89;111732;1244;21957;-81
2022/03/05 12:51:36;;;;;;;7.30;5.40;;;;;;;3.48;41.53;101248.96;111978;1238;21959;-81
2022/03/05 12:54:07;;;;;;;8.50;4.90;;;;;;;3.48;41.65;101251.38;112397;1238;22993;-81
2022/03/05 12:56:40;;;;;;;10.30;6.40;;;;;;;3.48;41.57;101251.77;112440;1238;21922;-81
2022/03/05 12:59:10;;;;;;;12.80;7.50;;;;;;;3.47;41.64;101250.02;112081;1238;24391;-80
2022/03/05 13:01:53;;;;;;;;;;;;;;;;;;;;;
2022/03/05 13:04:29;;;;;;;10.40;5.90;;;;;;;3.47;41.58;101251.48;113249;1230;23016;-81